Time;durP1;ratioP1;P1;durP2;ratioP2;P2;SDS_P1;SDS_P2;PMS_P1;PMS_P2;Temp;Humidity;BMP_temperature;BMP_pressure;BME280_temperature;BME280_humidity;BME280_pressure;Samples;Min_cycle;Max_cycle;Signal;HPM_P1;HPM_P2
2022/12/08 00:00:36;;;;;;;11.60;9.60;;;1.10;1.00;;;;;;6211916;28;20243;-51
2022/12/08 00:03:41;;;;;;;10.83;9.87;;;1.20;1.00;;;;;;6211438;28;20274;-51
2022/12/08 00:10:10;;;;;;;16.23;10.07;;;1.20;1.00;;;;;;6192934;28;20591;-50
2022/12/08 00:13:33;;;;;;;10.73;9.70;;;1.10;1.00;;;;;;6234876;28;20231;-51
2022/12/08 00:16:36;;;;;;;10.47;9.47;;;1.30;1.00;;;;;;6235639;28;20643;-51
2022/12/08 00:19:41;;;;;;;10.40;9.40;;;1.10;1.00;;;;;;6215830;28;20239;-50
2022/12/08 00:22:44;;;;;;;10.20;9.20;;;1.40;1.00;;;;;;6211912;28;20477;-52
2022/12/08 00:25:47;;;;;;;12.70;9.73;;;1.20;1.00;;;;;;6211690;28;20476;-51
2022/12/08 00:28:50;;;;;;;12.33;10.13;;;1.30;1.00;;;;;;6210007;28;20239;-51
2022/12/08 00:31:53;;;;;;;11.30;9.30;;;1.40;1.00;;;;;;6202119;28;20243;-51
2022/12/08 00:34:57;;;;;;;17.57;9.93;;;1.20;1.00;;;;;;6205971;28;20239;-51
2022/12/08 00:38:00;;;;;;;13.57;10.43;;;1.30;1.00;;;;;;6208697;28;20730;-51
2022/12/08 00:41:04;;;;;;;11.67;10.47;;;1.20;1.00;;;;;;6213258;28;20709;-52
2022/12/08 00:44:07;;;;;;;13.10;10.47;;;1.40;1.00;;;;;;6211160;28;20246;-51
2022/12/08 00:47:11;;;;;;;11.10;9.93;;;1.30;1.00;;;;;;6189045;28;20302;-53
2022/12/08 00:50:15;;;;;;;12.73;10.73;;;1.60;1.00;;;;;;6186300;28;20247;-51
2022/12/08 00:53:18;;;;;;;13.40;10.43;;;1.70;1.00;;;;;;6186645;28;20561;-51
2022/12/08 00:56:21;;;;;;;17.37;12.63;;;1.40;1.00;;;;;;6185930;28;20495;-50
2022/12/08 00:59:24;;;;;;;11.90;10.60;;;1.40;1.00;;;;;;6185913;28;20232;-51
2022/12/08 01:02:27;;;;;;;11.67;10.07;;;1.50;1.00;;;;;;6201822;28;20394;-50
2022/12/08 01:05:31;;;;;;;12.00;10.90;;;1.50;1.00;;;;;;6206366;28;20250;-52
2022/12/08 01:08:35;;;;;;;15.57;10.60;;;1.50;1.00;;;;;;6202212;28;20243;-52
2022/12/08 01:11:38;;;;;;;13.20;10.47;;;1.50;1.00;;;;;;6205443;28;20497;-50
2022/12/08 01:14:41;;;;;;;11.83;10.30;;;1.40;1.00;;;;;;6209245;28;20415;-50
2022/12/08 01:17:44;;;;;;;10.53;9.30;;;1.50;1.00;;;;;;6184988;28;20251;-52
2022/12/08 01:20:49;;;;;;;12.50;10.03;;;1.80;1.00;;;;;;6185815;28;20243;-50
2022/12/08 01:23:51;;;;;;;14.07;11.13;;;1.60;1.00;;;;;;6184713;28;20419;-50
2022/12/08 01:26:54;;;;;;;11.17;10.10;;;1.80;1.00;;;;;;6185024;28;20251;-52
2022/12/08 01:29:57;;;;;;;11.97;10.40;;;1.80;1.00;;;;;;6186293;28;20243;-56
2022/12/08 01:33:01;;;;;;;12.43;10.30;;;1.70;1.00;;;;;;6185293;28;20718;-51
2022/12/08 01:36:06;;;;;;;12.70;10.53;;;1.60;1.00;;;;;;6204693;28;20764;-51
2022/12/08 01:39:14;;;;;;;15.67;11.23;;;1.70;1.00;;;;;;6208777;28;20242;-51
2022/12/08 01:42:20;;;;;;;11.77;10.23;;;1.70;1.00;;;;;;6208851;28;20239;-51
2022/12/08 01:45:26;;;;;;;11.50;10.40;;;1.70;1.00;;;;;;6212249;28;20254;-51
2022/12/08 01:48:29;;;;;;;16.20;10.20;;;1.70;1.00;;;;;;6233224;28;20233;-51
2022/12/08 01:51:38;;;;;;;12.47;10.90;;;1.60;1.00;;;;;;6225717;28;20246;-51
2022/12/08 01:54:47;;;;;;;13.03;11.77;;;1.60;1.00;;;;;;6230659;28;20656;-53
2022/12/08 01:57:53;;;;;;;13.17;11.60;;;1.70;1.00;;;;;;6233415;28;20246;-51
2022/12/08 02:00:56;;;;;;;16.33;10.83;;;1.60;1.00;;;;;;6223172;28;20239;-51
2022/12/08 02:04:01;;;;;;;13.37;10.70;;;1.50;1.00;;;;;;6218529;28;20712;-51
2022/12/08 02:07:06;;;;;;;13.40;11.50;;;1.50;1.00;;;;;;6217552;28;20234;-51
2022/12/08 02:10:14;;;;;;;13.97;12.33;;;1.40;1.00;;;;;;6232878;28;20235;-50
2022/12/08 02:13:18;;;;;;;16.67;14.50;;;1.50;1.00;;;;;;6227411;28;20704;-54
2022/12/08 02:16:35;;;;;;;18.17;13.10;;;1.40;1.00;;;;;;6233378;28;20614;-50
2022/12/08 02:20:12;;;;;;;17.20;13.27;;;1.40;1.00;;;;;;6225758;28;20263;-51
2022/12/08 02:23:27;;;;;;;15.80;12.63;;;1.30;1.00;;;;;;6202701;28;20236;-52
2022/12/08 02:27:20;;;;;;;17.13;13.43;;;1.50;1.00;;;;;;6192116;28;20379;-53
2022/12/08 02:30:30;;;;;;;21.70;12.83;;;1.20;1.00;;;;;;6205971;28;20258;-50
2022/12/08 02:34:05;;;;;;;19.93;13.07;;;1.40;1.00;;;;;;6192370;28;20232;-51
2022/12/08 02:37:13;;;;;;;19.27;13.67;;;1.10;1.00;;;;;;6195397;28;20227;-51
2022/12/08 02:40:23;;;;;;;17.00;12.53;;;1.30;1.00;;;;;;6214327;28;20246;-51
2022/12/08 02:43:30;;;;;;;19.63;13.17;;;1.20;1.00;;;;;;6211937;28;20530;-52
2022/12/08 02:46:37;;;;;;;13.77;11.10;;;1.20;1.00;;;;;;6213752;28;20235;-51
2022/12/08 02:49:42;;;;;;;12.93;11.23;;;1.40;1.00;;;;;;6231284;28;20226;-49
2022/12/08 02:52:46;;;;;;;17.50;11.90;;;1.40;1.00;;;;;;6223447;28;20618;-51
2022/12/08 02:56:00;;;;;;;17.03;11.53;;;1.50;1.00;;;;;;6215258;28;20726;-52
2022/12/08 02:59:16;;;;;;;14.83;11.07;;;1.50;1.00;;;;;;6224209;28;20250;-51
2022/12/08 03:02:42;;;;;;;14.50;10.97;;;1.20;1.00;;;;;;6218280;28;20270;-50
2022/12/08 03:06:00;;;;;;;14.67;10.27;;;1.20;1.00;;;;;;6213206;28;20235;-52
2022/12/08 03:09:10;;;;;;;11.83;9.97;;;1.30;1.00;;;;;;6246528;28;20241;-52
2022/12/08 03:12:18;;;;;;;15.57;10.93;;;1.30;1.00;;;;;;6245301;28;20235;-51
2022/12/08 03:15:22;;;;;;;14.03;10.30;;;1.30;1.00;;;;;;6215866;28;20235;-51
2022/12/08 03:18:31;;;;;;;11.97;10.33;;;1.30;1.00;;;;;;6234447;28;20296;-52
2022/12/08 03:21:37;;;;;;;14.93;10.10;;;1.30;1.00;;;;;;6237195;28;20627;-51
2022/12/08 03:24:44;;;;;;;12.07;10.40;;;1.40;1.00;;;;;;6237752;28;20639;-51
2022/12/08 03:27:47;;;;;;;10.63;9.63;;;1.50;1.00;;;;;;6237694;28;20258;-52
2022/12/08 03:30:54;;;;;;;12.00;10.17;;;1.30;1.00;;;;;;6229905;28;20253;-52
2022/12/08 03:33:59;;;;;;;10.93;9.40;;;1.40;1.00;;;;;;6212319;28;20670;-51
2022/12/08 03:37:03;;;;;;;12.07;9.63;;;1.50;1.00;;;;;;6218143;28;20384;-52
2022/12/08 03:40:10;;;;;;;11.53;10.33;;;1.50;1.00;;;;;;6236823;28;20753;-53
2022/12/08 03:43:13;;;;;;;10.60;9.70;;;1.40;1.00;;;;;;6227605;28;20235;-52
2022/12/08 03:46:16;;;;;;;10.30;9.40;;;1.30;1.00;;;;;;6235842;28;20389;-52
2022/12/08 03:49:19;;;;;;;11.23;10.13;;;1.30;1.00;;;;;;6236128;28;20716;-52
2022/12/08 03:52:23;;;;;;;10.40;9.43;;;1.40;1.00;;;;;;6214512;28;20239;-52
2022/12/08 03:55:26;;;;;;;10.43;9.40;;;1.30;1.00;;;;;;6188213;28;20228;-49
2022/12/08 03:58:29;;;;;;;11.40;10.30;;;1.40;1.00;;;;;;6192095;28;20236;-50
2022/12/08 04:01:39;;;;;;;12.77;11.47;;;1.50;1.00;;;;;;6203137;28;20236;-52
2022/12/08 04:04:43;;;;;;;12.23;11.07;;;1.40;1.00;;;;;;6186913;28;20612;-52
2022/12/08 04:07:47;;;;;;;13.00;11.13;;;1.30;1.00;;;;;;6206801;28;20238;-52
2022/12/08 04:10:50;;;;;;;13.57;11.47;;;1.50;1.00;;;;;;6210380;28;20666;-52
2022/12/08 04:13:53;;;;;;;13.97;12.37;;;1.20;1.00;;;;;;6210546;28;20373;-51
2022/12/08 04:16:56;;;;;;;14.07;11.47;;;1.50;1.00;;;;;;6211131;28;20243;-51
2022/12/08 04:19:59;;;;;;;13.57;12.17;;;1.40;1.00;;;;;;6210487;28;20250;-53
2022/12/08 04:23:03;;;;;;;16.47;12.93;;;1.40;1.00;;;;;;6210971;28;20250;-52
2022/12/08 04:26:07;;;;;;;13.77;12.33;;;1.50;1.00;;;;;;6199088;28;20262;-51
2022/12/08 04:29:10;;;;;;;14.87;13.37;;;1.70;1.00;;;;;;6210096;28;20458;-52
2022/12/08 04:32:12;;;;;;;15.40;13.33;;;1.50;1.00;;;;;;6189387;28;20235;-52
2022/12/08 04:35:16;;;;;;;15.13;13.53;;;1.70;1.00;;;;;;6216958;28;20431;-52
2022/12/08 04:38:20;;;;;;;15.30;13.70;;;1.40;1.00;;;;;;6216791;28;20247;-52
2022/12/08 04:41:23;;;;;;;16.50;13.90;;;1.80;1.00;;;;;;6207194;28;20748;-52
2022/12/08 04:44:26;;;;;;;15.00;13.07;;;1.50;1.00;;;;;;6217641;28;20227;-55
2022/12/08 04:47:29;;;;;;;19.37;14.80;;;1.50;1.00;;;;;;6206854;28;20239;-52
2022/12/08 04:50:32;;;;;;;18.23;15.33;;;1.60;1.00;;;;;;6208657;28;20250;-52
2022/12/08 04:53:36;;;;;;;17.43;14.40;;;1.50;1.00;;;;;;6201467;28;20591;-53
2022/12/08 04:56:46;;;;;;;20.13;15.13;;;1.50;1.00;;;;;;6229939;28;20313;-50
2022/12/08 04:59:49;;;;;;;20.33;15.27;;;1.60;1.00;;;;;;6233947;28;20275;-51
2022/12/08 05:02:52;;;;;;;19.03;15.33;;;1.70;1.00;;;;;;6235756;28;20230;-51
2022/12/08 05:05:55;;;;;;;20.17;15.33;;;1.60;1.00;;;;;;6229022;28;20317;-52
2022/12/08 05:09:00;;;;;;;20.47;16.03;;;1.60;1.00;;;;;;6215557;28;20254;-52
2022/12/08 05:12:03;;;;;;;18.40;15.00;;;1.50;1.00;;;;;;6211346;28;20290;-52
2022/12/08 05:15:07;;;;;;;19.67;14.77;;;1.50;1.00;;;;;;6206653;28;20239;-52
2022/12/08 05:18:10;;;;;;;18.20;15.63;;;1.60;1.00;;;;;;6205093;28;20737;-52
2022/12/08 05:21:13;;;;;;;20.63;16.27;;;1.50;1.00;;;;;;6211419;28;20223;-51
2022/12/08 05:24:17;;;;;;;23.77;16.33;;;1.60;1.00;;;;;;6213089;28;20232;-52
2022/12/08 05:27:20;;;;;;;19.70;15.63;;;1.90;1.00;;;;;;6213189;28;20239;-55
2022/12/08 05:30:23;;;;;;;20.13;16.53;;;1.80;1.00;;;;;;6211367;28;20243;-54
2022/12/08 05:33:26;;;;;;;23.53;17.07;;;1.70;1.00;;;;;;6207100;28;20419;-52
2022/12/08 05:36:29;;;;;;;21.63;17.17;;;1.70;1.00;;;;;;6211594;28;21501;-52
2022/12/08 05:39:33;;;;;;;21.40;17.67;;;1.70;1.00;;;;;;6211856;28;20246;-53
2022/12/08 05:42:36;;;;;;;24.03;17.90;;;1.70;1.00;;;;;;6209728;28;20238;-52
2022/12/08 05:45:39;;;;;;;22.60;17.27;;;1.90;1.00;;;;;;6195292;28;20243;-52
2022/12/08 05:48:42;;;;;;;23.67;16.77;;;2.00;1.00;;;;;;6223933;28;20716;-52
2022/12/08 05:51:45;;;;;;;18.07;16.13;;;1.80;1.00;;;;;;6237041;28;20482;-53
2022/12/08 05:54:49;;;;;;;22.63;17.43;;;1.80;1.00;;;;;;6235476;28;20293;-53
2022/12/08 05:57:52;;;;;;;22.03;17.30;;;2.10;1.00;;;;;;6226506;28;20268;-52
2022/12/08 06:00:55;;;;;;;26.83;18.73;;;2.00;1.00;;;;;;6243939;28;20257;-52
2022/12/08 06:04:00;;;;;;;22.80;16.63;;;2.00;1.00;;;;;;6229159;28;20383;-51
2022/12/08 06:07:03;;;;;;;26.03;17.67;;;2.00;1.00;;;;;;6232684;28;20242;-58
2022/12/08 06:10:09;;;;;;;20.70;17.30;;;2.10;1.00;;;;;;6243811;28;20226;-52
2022/12/08 06:13:12;;;;;;;23.37;17.60;;;2.20;1.00;;;;;;6243221;28;20245;-51
2022/12/08 06:16:15;;;;;;;22.57;17.03;;;2.20;1.00;;;;;;6242795;28;20230;-51
2022/12/08 06:19:18;;;;;;;22.87;17.07;;;1.90;1.00;;;;;;6237830;28;20242;-51
2022/12/08 06:22:21;;;;;;;19.17;15.80;;;2.30;1.00;;;;;;6246131;28;20226;-52
2022/12/08 06:25:26;;;;;;;21.03;17.63;;;2.00;1.00;;;;;;6240360;28;20555;-51
2022/12/08 06:28:29;;;;;;;18.53;16.53;;;2.10;1.00;;;;;;6238794;28;20470;-56
2022/12/08 06:31:32;;;;;;;24.90;17.57;;;2.10;1.00;;;;;;6245820;28;20239;-52
2022/12/08 06:34:35;;;;;;;22.43;16.77;;;2.00;1.00;;;;;;6242242;28;20652;-51
2022/12/08 06:37:38;;;;;;;24.10;16.77;;;2.10;1.00;;;;;;6240115;28;20231;-52
2022/12/08 06:40:42;;;;;;;22.77;17.73;;;2.40;1.00;;;;;;6236905;28;20243;-51
2022/12/08 06:43:46;;;;;;;22.17;16.67;;;2.20;1.00;;;;;;6212343;28;23102;-51
2022/12/08 06:46:49;;;;;;;18.50;16.20;;;2.10;1.00;;;;;;6220706;28;20720;-52
2022/12/08 06:49:52;;;;;;;23.73;17.17;;;2.20;1.00;;;;;;6221914;28;20242;-52
2022/12/08 06:52:55;;;;;;;20.30;16.33;;;2.10;1.00;;;;;;6222859;28;20258;-52
2022/12/08 06:56:09;;;;;;;27.67;16.33;;;2.30;1.00;;;;;;6229884;28;20471;-50
2022/12/08 06:59:12;;;;;;;26.83;18.03;;;2.10;1.00;;;;;;6200012;28;20696;-51
2022/12/08 07:02:16;;;;;;;28.00;17.60;;;2.20;1.00;;;;;;6209040;28;20243;-52
2022/12/08 07:05:19;;;;;;;26.37;15.97;;;2.50;1.00;;;;;;6210490;28;20323;-51
2022/12/08 07:08:22;;;;;;;23.40;16.67;;;2.30;1.00;;;;;;6214605;28;20305;-52
2022/12/08 07:11:26;;;;;;;21.27;16.80;;;2.40;1.00;;;;;;6206373;28;20242;-51
2022/12/08 07:14:30;;;;;;;24.63;15.93;;;2.30;1.00;;;;;;6214233;28;20239;-52
2022/12/08 07:17:33;;;;;;;26.67;17.73;;;2.30;1.00;;;;;;6212785;28;20236;-52
2022/12/08 07:20:36;;;;;;;24.60;16.50;;;2.30;1.00;;;;;;6210766;28;20254;-52
2022/12/08 07:23:39;;;;;;;25.23;16.03;;;2.50;1.00;;;;;;6219030;28;20616;-52
2022/12/08 07:26:43;;;;;;;19.10;16.20;;;2.60;1.00;;;;;;6210922;28;20277;-51
2022/12/08 07:29:46;;;;;;;21.37;16.63;;;2.60;1.00;;;;;;6205773;28;20241;-52
2022/12/08 07:32:49;;;;;;;18.47;15.07;;;2.40;1.00;;;;;;6205368;28;20235;-53
2022/12/08 07:35:56;;;;;;;20.73;16.53;;;2.60;1.00;;;;;;6213048;28;20485;-52
2022/12/08 07:38:59;;;;;;;24.80;17.30;;;2.70;1.00;;;;;;6216558;28;20242;-52
2022/12/08 07:42:03;;;;;;;25.70;17.07;;;2.50;1.00;;;;;;6209949;28;20240;-52
2022/12/08 07:45:08;;;;;;;18.63;15.70;;;2.50;1.00;;;;;;6215710;28;20228;-52
2022/12/08 07:48:11;;;;;;;26.73;17.13;;;2.50;1.00;;;;;;6205754;28;20306;-51
2022/12/08 07:51:16;;;;;;;20.37;15.47;;;2.70;1.00;;;;;;6208408;28;20235;-50
2022/12/08 07:54:19;;;;;;;21.77;15.47;;;2.90;1.00;;;;;;6207399;28;20743;-51
2022/12/08 07:57:23;;;;;;;20.30;16.47;;;2.60;1.00;;;;;;6213397;28;20242;-54
2022/12/08 08:00:26;;;;;;;21.67;16.67;;;2.80;1.00;;;;;;6204637;28;20270;-54
2022/12/08 08:03:29;;;;;;;19.83;15.73;;;2.60;1.00;;;;;;6215429;28;20236;-52
2022/12/08 08:06:33;;;;;;;22.53;16.53;;;2.70;1.00;;;;;;6211737;28;20239;-53
2022/12/08 08:09:37;;;;;;;23.10;16.70;;;2.90;1.00;;;;;;6204206;28;20256;-53
2022/12/08 08:12:41;;;;;;;23.60;15.27;;;2.70;1.00;;;;;;6211559;28;20231;-50
2022/12/08 08:15:44;;;;;;;18.57;15.67;;;2.90;1.00;;;;;;6210226;28;20235;-51
2022/12/08 08:18:48;;;;;;;18.57;15.00;;;3.00;1.00;;;;;;6203343;28;20462;-53
2022/12/08 08:21:51;;;;;;;21.23;15.73;;;2.60;1.00;;;;;;6209677;28;20235;-52
2022/12/08 08:24:54;;;;;;;19.83;15.77;;;3.10;1.00;;;;;;6211987;28;20235;-53
2022/12/08 08:27:58;;;;;;;18.93;15.23;;;2.80;1.00;;;;;;6213575;28;20243;-51
2022/12/08 08:31:02;;;;;;;25.13;16.40;;;3.10;1.00;;;;;;6211283;28;20612;-52
2022/12/08 08:34:05;;;;;;;27.13;16.77;;;3.00;1.00;;;;;;6214957;28;20243;-53
2022/12/08 08:37:08;;;;;;;21.53;16.83;;;3.10;1.00;;;;;;6208368;28;20648;-51
2022/12/08 08:40:12;;;;;;;25.70;16.47;;;3.00;1.00;;;;;;6209027;28;20722;-53
2022/12/08 08:43:28;;;;;;;19.70;16.53;;;2.90;1.00;;;;;;6210063;28;20239;-52
2022/12/08 08:46:39;;;;;;;21.90;17.07;;;3.10;1.00;;;;;;6209201;28;20292;-53
2022/12/08 08:49:42;;;;;;;20.47;15.60;;;3.20;1.00;;;;;;6208893;28;20248;-51
2022/12/08 08:52:45;;;;;;;22.03;16.00;;;3.00;1.00;;;;;;6204846;28;20497;-53
2022/12/08 08:55:49;;;;;;;26.00;16.83;;;3.40;1.00;;;;;;6209025;28;20242;-52
2022/12/08 08:58:53;;;;;;;24.00;17.13;;;3.30;1.00;;;;;;6199566;28;20251;-52
2022/12/08 09:01:56;;;;;;;21.83;15.47;;;3.20;1.00;;;;;;6207555;28;20235;-52
2022/12/08 09:04:59;;;;;;;22.87;15.77;;;3.30;1.00;;;;;;6208866;28;20834;-53
2022/12/08 09:08:02;;;;;;;25.83;17.23;;;3.50;1.00;;;;;;6208098;28;20292;-52
2022/12/08 09:11:06;;;;;;;23.87;15.97;;;3.50;1.00;;;;;;6206562;28;20234;-52
2022/12/08 09:14:13;;;;;;;23.03;16.97;;;3.50;1.00;;;;;;6204151;28;20231;-52
2022/12/08 09:17:16;;;;;;;20.10;15.90;;;3.50;1.00;;;;;;6208491;28;20231;-52
2022/12/08 09:20:19;;;;;;;20.57;15.10;;;3.50;1.00;;;;;;6200566;28;20231;-51
2022/12/08 09:23:22;;;;;;;22.23;16.30;;;3.60;1.00;;;;;;6199537;28;20231;-51
2022/12/08 09:26:26;;;;;;;21.43;15.70;;;3.60;1.00;;;;;;6203965;28;20614;-52
2022/12/08 09:29:31;;;;;;;24.40;17.43;;;3.60;1.00;;;;;;6206113;28;20239;-51
2022/12/08 09:32:38;;;;;;;19.63;16.13;;;3.60;1.00;;;;;;6213376;28;20327;-52
2022/12/08 09:35:41;;;;;;;22.67;16.43;;;3.70;1.00;;;;;;6208594;28;20825;-52
2022/12/08 09:38:45;;;;;;;20.23;16.93;;;3.50;1.00;;;;;;6202815;28;20828;-52
2022/12/08 09:41:50;;;;;;;24.03;17.13;;;3.50;1.00;;;;;;6199865;28;20231;-55
2022/12/08 09:45:00;;;;;;;23.63;17.67;;;3.50;1.00;;;;;;6212006;28;20269;-52
2022/12/08 09:48:06;;;;;;;17.50;14.23;;;3.60;1.00;;;;;;6207547;28;20242;-52
2022/12/08 09:51:11;;;;;;;20.67;16.97;;;3.70;1.00;;;;;;6212798;28;20223;-51
2022/12/08 09:54:19;;;;;;;20.23;16.47;;;3.70;1.00;;;;;;6211258;28;20744;-52
2022/12/08 09:57:24;;;;;;;20.37;15.87;;;3.70;1.00;;;;;;6215912;28;20322;-52
2022/12/08 10:00:29;;;;;;;18.43;15.40;;;3.70;1.00;;;;;;6213617;28;20257;-52
2022/12/08 10:03:32;;;;;;;18.13;15.37;;;3.80;1.00;;;;;;6217013;28;20239;-53
2022/12/08 10:06:41;;;;;;;19.97;16.23;;;4.00;1.00;;;;;;6213800;28;20226;-52
2022/12/08 10:09:53;;;;;;;16.23;14.63;;;3.90;1.00;;;;;;6211744;28;20270;-52
2022/12/08 10:13:04;;;;;;;16.70;14.90;;;4.20;1.00;;;;;;6213175;28;20315;-51
2022/12/08 10:16:18;;;;;;;18.03;14.07;;;3.90;1.00;;;;;;6206838;28;20650;-52
2022/12/08 10:19:33;;;;;;;17.43;14.47;;;4.10;1.00;;;;;;6209930;28;20455;-52
2022/12/08 10:22:36;;;;;;;19.20;14.97;;;4.10;1.00;;;;;;6212373;28;20247;-52
2022/12/08 10:25:48;;;;;;;20.13;15.43;;;3.80;1.00;;;;;;6205978;28;20239;-52
2022/12/08 10:28:51;;;;;;;19.30;14.50;;;3.90;1.00;;;;;;6207448;28;20243;-53
2022/12/08 10:31:57;;;;;;;18.80;15.13;;;4.00;1.00;;;;;;6212684;28;20243;-52
2022/12/08 10:35:06;;;;;;;19.13;14.70;;;4.00;1.00;;;;;;6211447;28;20239;-53
2022/12/08 10:38:17;;;;;;;19.47;15.20;;;3.90;1.00;;;;;;6204626;28;20235;-50
2022/12/08 10:41:20;;;;;;;22.60;16.13;;;3.80;1.00;;;;;;6209183;28;20238;-53
2022/12/08 10:44:23;;;;;;;16.10;14.50;;;4.00;1.00;;;;;;6207039;28;20466;-53
2022/12/08 10:47:29;;;;;;;19.30;14.77;;;4.10;1.00;;;;;;6211340;28;20227;-53
2022/12/08 10:50:34;;;;;;;19.13;15.23;;;4.20;1.00;;;;;;6212748;28;20642;-52
2022/12/08 10:53:46;;;;;;;21.93;16.50;;;3.90;1.00;;;;;;6210684;28;20235;-53
2022/12/08 10:56:54;;;;;;;19.03;14.73;;;4.20;1.00;;;;;;6204752;28;20251;-53
2022/12/08 10:59:57;;;;;;;16.90;14.90;;;4.00;1.00;;;;;;6204531;28;20243;-52
2022/12/08 11:03:04;;;;;;;17.13;15.13;;;3.90;1.00;;;;;;6211096;28;20239;-51
2022/12/08 11:06:15;;;;;;;17.70;14.33;;;3.90;1.00;;;;;;6216296;28;20874;-53
2022/12/08 11:09:34;;;;;;;16.63;14.70;;;4.20;1.00;;;;;;6213916;28;20234;-52
2022/12/08 11:12:36;;;;;;;19.70;14.57;;;3.80;1.00;;;;;;6210071;28;20232;-53
2022/12/08 11:15:40;;;;;;;16.20;13.40;;;3.90;1.00;;;;;;6208056;28;20236;-54
2022/12/08 11:18:46;;;;;;;15.57;13.83;;;3.80;1.00;;;;;;6210002;28;20236;-52
2022/12/08 11:21:50;;;;;;;16.10;14.60;;;3.90;1.00;;;;;;6211304;28;20238;-52
2022/12/08 11:25:01;;;;;;;15.23;13.77;;;4.00;1.00;;;;;;6202537;28;20232;-53
2022/12/08 11:28:08;;;;;;;15.83;13.83;;;3.90;1.00;;;;;;6208012;28;20853;-52
2022/12/08 11:31:21;;;;;;;15.33;13.63;;;3.60;1.00;;;;;;6217866;28;20227;-52
2022/12/08 11:34:32;;;;;;;16.00;14.37;;;3.80;1.00;;;;;;6207423;28;20568;-52
2022/12/08 11:37:40;;;;;;;15.10;13.30;;;3.70;1.00;;;;;;6208722;28;20240;-52
2022/12/08 11:40:45;;;;;;;16.80;14.13;;;3.60;1.00;;;;;;6207517;28;20240;-53
2022/12/08 11:43:54;;;;;;;17.47;12.87;;;3.70;1.00;;;;;;6208939;28;20632;-56
2022/12/08 11:47:00;;;;;;;16.13;14.47;;;3.40;1.00;;;;;;6196512;28;20240;-52
2022/12/08 11:50:19;;;;;;;15.93;14.27;;;3.60;1.00;;;;;;6211233;28;20250;-52
2022/12/08 11:53:31;;;;;;;22.87;14.90;;;3.70;1.00;;;;;;6217172;28;20245;-53
2022/12/08 11:56:37;;;;;;;17.87;14.10;;;3.80;1.00;;;;;;6225900;28;20801;-52
2022/12/08 11:59:43;;;;;;;16.53;13.77;;;3.90;1.00;;;;;;6206276;28;20243;-52
2022/12/08 12:02:52;;;;;;;16.23;14.03;;;3.80;1.00;;;;;;6214547;28;20245;-52
2022/12/08 12:06:18;;;;;;;15.30;13.63;;;3.50;1.00;;;;;;6213242;28;20266;-52
2022/12/08 12:10:04;;;;;;;21.70;14.90;;;3.60;1.00;;;;;;6213795;28;20243;-47
2022/12/08 12:13:16;;;;;;;21.10;14.37;;;3.90;1.00;;;;;;6214757;28;20250;-53
2022/12/08 12:16:46;;;;;;;15.93;14.00;;;3.80;1.00;;;;;;6233723;28;20231;-52
2022/12/08 12:19:51;;;;;;;15.97;14.20;;;3.90;1.00;;;;;;6219483;28;20231;-53
2022/12/08 12:22:59;;;;;;;15.03;13.10;;;3.80;1.00;;;;;;6219660;28;20266;-53
2022/12/08 12:26:06;;;;;;;15.53;13.37;;;3.90;1.00;;;;;;6213371;28;20247;-53
2022/12/08 12:29:17;;;;;;;14.83;12.27;;;3.90;1.00;;;;;;6213097;28;20267;-53
2022/12/08 12:32:20;;;;;;;14.00;12.60;;;3.50;1.00;;;;;;6214603;28;20741;-53
2022/12/08 12:35:32;;;;;;;13.87;12.47;;;3.60;1.00;;;;;;6219527;28;20242;-53
2022/12/08 12:42:02;;;;;;;17.53;13.10;;;3.70;1.00;;;;;;6229141;28;20717;-54
2022/12/08 12:45:26;;;;;;;17.93;13.23;;;3.50;1.00;;;;;;6236822;28;20253;-53
2022/12/08 12:48:29;;;;;;;14.80;12.27;;;3.70;1.00;;;;;;6230789;28;20266;-53
2022/12/08 12:51:44;;;;;;;16.73;13.80;;;3.70;1.00;;;;;;6230496;28;20226;-52
2022/12/08 12:55:27;;;;;;;15.13;13.53;;;3.60;1.00;;;;;;6233188;28;20250;-51
2022/12/08 12:58:49;;;;;;;16.97;13.97;;;3.80;1.00;;;;;;6220607;28;20230;-52
2022/12/08 13:01:54;;;;;;;15.67;14.13;;;3.90;1.00;;;;;;6233616;28;20227;-53
2022/12/08 13:05:01;;;;;;;16.73;13.83;;;3.70;1.00;;;;;;6227564;28;20605;-52
2022/12/08 13:08:08;;;;;;;15.93;14.00;;;3.50;1.00;;;;;;6227763;28;20242;-53
2022/12/08 13:11:13;;;;;;;16.27;13.27;;;3.60;1.00;;;;;;6234346;28;20970;-52
2022/12/08 13:14:34;;;;;;;17.50;14.13;;;3.70;1.00;;;;;;6229614;28;20233;-53
2022/12/08 13:17:37;;;;;;;14.07;12.53;;;3.60;1.00;;;;;;6227085;28;20235;-53
2022/12/08 13:20:42;;;;;;;15.10;12.70;;;3.60;1.00;;;;;;6230986;28;20262;-52
2022/12/08 13:23:47;;;;;;;15.90;13.87;;;3.80;1.00;;;;;;6228106;28;20452;-53
2022/12/08 13:27:33;;;;;;;14.70;13.20;;;3.70;1.00;;;;;;6234128;28;20243;-57
2022/12/08 13:30:43;;;;;;;14.37;12.43;;;3.30;1.00;;;;;;6230540;28;20235;-53
2022/12/08 13:33:47;;;;;;;15.33;13.33;;;3.60;1.00;;;;;;6228112;28;20238;-53
2022/12/08 13:36:59;;;;;;;14.43;12.93;;;3.40;1.00;;;;;;6225463;28;20234;-52
2022/12/08 13:40:09;;;;;;;15.53;13.17;;;3.30;1.00;;;;;;6234515;28;20740;-52
2022/12/08 13:43:19;;;;;;;15.73;14.17;;;3.60;1.00;;;;;;6229394;28;20234;-53
2022/12/08 13:46:34;;;;;;;15.33;13.73;;;3.30;1.00;;;;;;6228960;28;20227;-52
2022/12/08 13:50:02;;;;;;;14.43;12.93;;;3.20;1.00;;;;;;6205755;28;20270;-52
2022/12/08 13:53:29;;;;;;;17.07;14.87;;;3.40;1.00;;;;;;6210034;28;20719;-52
2022/12/08 13:56:54;;;;;;;14.03;12.47;;;3.40;1.00;;;;;;6208084;28;20274;-53
2022/12/08 14:00:19;;;;;;;15.10;13.47;;;3.40;1.00;;;;;;6206897;28;20457;-53
2022/12/08 14:03:22;;;;;;;14.50;13.07;;;3.30;1.00;;;;;;6202265;28;20239;-52
2022/12/08 14:06:30;;;;;;;14.50;13.10;;;3.30;1.00;;;;;;6214601;28;20239;-53
2022/12/08 14:09:36;;;;;;;15.00;13.50;;;3.40;1.00;;;;;;6206803;28;20403;-52
2022/12/08 14:12:43;;;;;;;14.57;13.03;;;3.50;1.00;;;;;;6207012;28;20769;-52
2022/12/08 14:15:48;;;;;;;15.60;13.93;;;3.60;1.00;;;;;;6215592;28;20247;-52
2022/12/08 14:18:51;;;;;;;13.57;12.27;;;3.70;1.00;;;;;;6212402;28;20471;-52
2022/12/08 14:21:57;;;;;;;13.13;12.03;;;3.40;1.00;;;;;;6214240;28;20235;-53
2022/12/08 14:25:00;;;;;;;12.00;10.97;;;3.40;1.00;;;;;;6219553;28;20596;-52
2022/12/08 14:28:05;;;;;;;12.83;11.60;;;3.70;1.00;;;;;;6217868;28;20247;-53
2022/12/08 14:31:12;;;;;;;13.27;12.03;;;3.60;1.00;;;;;;6228304;28;20235;-53
2022/12/08 14:34:16;;;;;;;13.43;12.23;;;3.60;1.00;;;;;;6210177;28;20227;-53
2022/12/08 14:37:19;;;;;;;13.03;11.33;;;3.30;1.00;;;;;;6210490;28;20235;-53
2022/12/08 14:40:24;;;;;;;15.50;12.50;;;3.60;1.00;;;;;;6211997;28;20620;-53
2022/12/08 14:43:29;;;;;;;15.60;14.07;;;3.30;1.00;;;;;;6232548;28;20241;-53
2022/12/08 14:46:33;;;;;;;12.23;11.03;;;3.50;1.00;;;;;;6235415;28;20689;-51
2022/12/08 14:49:38;;;;;;;11.90;10.80;;;3.70;1.00;;;;;;6236214;28;20246;-52
2022/12/08 14:52:43;;;;;;;10.87;9.90;;;3.80;1.00;;;;;;6234846;28;20234;-54
2022/12/08 14:55:49;;;;;;;11.43;10.53;;;3.50;1.00;;;;;;6235382;28;20763;-55
2022/12/08 14:59:04;;;;;;;10.40;9.60;;;3.30;1.00;;;;;;6236890;28;20264;-54
2022/12/08 15:02:23;;;;;;;10.83;9.90;;;3.40;1.00;;;;;;6235287;28;20265;-53
2022/12/08 15:05:30;;;;;;;10.03;9.13;;;3.70;1.00;;;;;;6241195;28;20378;-53
2022/12/08 15:08:34;;;;;;;10.20;9.40;;;3.40;1.00;;;;;;6236758;28;20231;-56
2022/12/08 15:11:37;;;;;;;9.50;8.67;;;3.40;1.00;;;;;;6233708;28;20617;-58
2022/12/08 15:14:42;;;;;;;10.83;9.90;;;3.40;1.00;;;;;;6235472;28;20230;-53
2022/12/08 15:17:51;;;;;;;11.13;10.23;;;3.30;1.00;;;;;;6237076;28;20245;-53
2022/12/08 15:21:01;;;;;;;10.20;9.33;;;3.50;1.00;;;;;;6225232;28;20230;-53
2022/12/08 15:24:04;;;;;;;10.97;10.13;;;3.50;1.00;;;;;;6235586;28;20234;-52
2022/12/08 15:27:07;;;;;;;11.00;9.87;;;3.50;1.00;;;;;;6236017;28;20494;-53
2022/12/08 15:30:13;;;;;;;10.67;9.77;;;3.60;1.00;;;;;;6236081;28;20254;-57
2022/12/08 15:33:17;;;;;;;10.93;10.07;;;3.30;1.00;;;;;;6241126;28;20570;-53
2022/12/08 15:36:20;;;;;;;11.47;10.23;;;3.40;1.00;;;;;;6228647;28;20374;-52
2022/12/08 15:39:34;;;;;;;10.90;10.07;;;3.30;1.00;;;;;;6233877;28;20235;-52
2022/12/08 15:42:37;;;;;;;10.87;9.97;;;3.40;1.00;;;;;;6233043;28;20227;-52
2022/12/08 15:45:40;;;;;;;11.67;10.67;;;3.20;1.00;;;;;;6214317;28;20607;-52
2022/12/08 15:49:01;;;;;;;11.83;10.73;;;3.10;1.00;;;;;;6216724;28;20243;-53
2022/12/08 15:52:06;;;;;;;12.27;11.23;;;3.20;1.00;;;;;;6215159;28;20242;-53
2022/12/08 15:55:14;;;;;;;11.33;10.37;;;3.30;1.00;;;;;;6212738;28;20608;-52
2022/12/08 15:58:20;;;;;;;11.43;10.43;;;3.10;1.00;;;;;;6214372;28;20235;-54
2022/12/08 16:01:44;;;;;;;12.57;10.47;;;3.30;1.00;;;;;;6224784;28;20243;-52
2022/12/08 16:04:49;;;;;;;13.10;10.57;;;3.10;1.00;;;;;;6212205;28;20836;-53
2022/12/08 16:08:14;;;;;;;12.10;11.10;;;3.20;1.00;;;;;;6226011;28;20927;-53
2022/12/08 16:15:11;;;;;;;12.30;11.20;;;3.20;1.00;;;;;;6214572;28;20257;-53
2022/12/08 16:18:36;;;;;;;11.93;10.90;;;3.10;1.00;;;;;;6202417;28;20248;-53
2022/12/08 16:21:41;;;;;;;12.67;11.57;;;3.10;1.00;;;;;;6214645;28;20231;-53
2022/12/08 16:25:05;;;;;;;11.77;10.83;;;3.20;1.00;;;;;;6212334;28;20337;-54